sensor_id;sensor_type;location;lat;lon;timestamp;pressure;altitude;pressure_sealevel;temperature;humidity
36788;BME280;22738;45.560;9.434;2023-01-31T00:01:50;100119.84;;;2.62;100.00
36788;BME280;22738;45.560;9.434;2023-01-31T00:08:31;100137.22;;;2.51;100.00
36788;BME280;22738;45.560;9.434;2023-01-31T00:15:12;100161.03;;;2.53;100.00
36788;BME280;22738;45.560;9.434;2023-01-31T00:21:56;100147.88;;;2.67;100.00
36788;BME280;22738;45.560;9.434;2023-01-31T00:28:38;100171.13;;;2.58;100.00
36788;BME280;22738;45.560;9.434;2023-01-31T00:35:19;100176.44;;;2.50;100.00
36788;BME280;22738;45.560;9.434;2023-01-31T00:42:00;100191.16;;;2.42;100.00
36788;BME280;22738;45.560;9.434;2023-01-31T00:48:41;100196.22;;;2.44;100.00
36788;BME280;22738;45.560;9.434;2023-01-31T00:55:22;100209.34;;;2.30;100.00
36788;BME280;22738;45.560;9.434;2023-01-31T01:02:04;100238.06;;;2.41;100.00
36788;BME280;22738;45.560;9.434;2023-01-31T01:08:45;100235.06;;;2.24;100.00
36788;BME280;22738;45.560;9.434;2023-01-31T01:15:26;100241.84;;;2.25;100.00
36788;BME280;22738;45.560;9.434;2023-01-31T01:22:07;100249.56;;;2.24;100.00
36788;BME280;22738;45.560;9.434;2023-01-31T01:28:51;100254.00;;;2.17;100.00
36788;BME280;22738;45.560;9.434;2023-01-31T01:35:33;100282.75;;;2.27;100.00
36788;BME280;22738;45.560;9.434;2023-01-31T01:42:19;100289.50;;;2.29;100.00
36788;BME280;22738;45.560;9.434;2023-01-31T01:56:00;100299.75;;;2.29;100.00
36788;BME280;22738;45.560;9.434;2023-01-31T02:02:43;100324.63;;;2.23;100.00
36788;BME280;22738;45.560;9.434;2023-01-31T02:16:35;100313.19;;;2.37;100.00
36788;BME280;22738;45.560;9.434;2023-01-31T02:51:18;100318.50;;;2.28;100.00
36788;BME280;22738;45.560;9.434;2023-01-31T02:58:06;100349.44;;;2.16;100.00
36788;BME280;22738;45.560;9.434;2023-01-31T03:04:48;100352.94;;;2.12;100.00
36788;BME280;22738;45.560;9.434;2023-01-31T03:11:39;100353.69;;;2.17;100.00
36788;BME280;22738;45.560;9.434;2023-01-31T03:18:41;100354.91;;;2.01;100.00
36788;BME280;22738;45.560;9.434;2023-01-31T03:25:27;100366.53;;;2.14;100.00
36788;BME280;22738;45.560;9.434;2023-01-31T03:32:26;100341.13;;;2.08;100.00
36788;BME280;22738;45.560;9.434;2023-01-31T03:46:10;100363.97;;;1.73;100.00
36788;BME280;22738;45.560;9.434;2023-01-31T03:53:19;100362.34;;;1.69;100.00
36788;BME280;22738;45.560;9.434;2023-01-31T04:00:04;100364.25;;;1.59;100.00
36788;BME280;22738;45.560;9.434;2023-01-31T04:06:55;100383.09;;;1.54;100.00
36788;BME280;22738;45.560;9.434;2023-01-31T04:13:37;100391.59;;;1.53;100.00
36788;BME280;22738;45.560;9.434;2023-01-31T04:20:18;100403.53;;;1.54;100.00
36788;BME280;22738;45.560;9.434;2023-01-31T04:26:59;100401.72;;;1.59;100.00
36788;BME280;22738;45.560;9.434;2023-01-31T04:33:40;100394.06;;;1.59;100.00
36788;BME280;22738;45.560;9.434;2023-01-31T04:40:22;100393.72;;;1.77;100.00
36788;BME280;22738;45.560;9.434;2023-01-31T04:47:03;100383.38;;;1.38;100.00
36788;BME280;22738;45.560;9.434;2023-01-31T04:53:44;100384.41;;;1.28;100.00
36788;BME280;22738;45.560;9.434;2023-01-31T05:00:25;100383.47;;;1.32;100.00
36788;BME280;22738;45.560;9.434;2023-01-31T05:07:06;100398.91;;;1.26;100.00
36788;BME280;22738;45.560;9.434;2023-01-31T05:13:47;100389.59;;;1.24;100.00
36788;BME280;22738;45.560;9.434;2023-01-31T05:20:30;100404.31;;;1.08;100.00
36788;BME280;22738;45.560;9.434;2023-01-31T05:27:11;100409.53;;;1.01;100.00
36788;BME280;22738;45.560;9.434;2023-01-31T05:33:52;100417.78;;;1.18;100.00
36788;BME280;22738;45.560;9.434;2023-01-31T05:40:34;100420.47;;;1.07;100.00
36788;BME280;22738;45.560;9.434;2023-01-31T05:47:15;100425.72;;;0.98;100.00
36788;BME280;22738;45.560;9.434;2023-01-31T05:53:56;100429.28;;;0.90;100.00
36788;BME280;22738;45.560;9.434;2023-01-31T06:00:38;100437.09;;;0.79;100.00
36788;BME280;22738;45.560;9.434;2023-01-31T06:07:19;100430.97;;;0.89;100.00
36788;BME280;22738;45.560;9.434;2023-01-31T06:14:00;100450.66;;;0.80;100.00
36788;BME280;22738;45.560;9.434;2023-01-31T06:20:41;100457.44;;;0.82;100.00
36788;BME280;22738;45.560;9.434;2023-01-31T06:27:22;100473.56;;;0.84;100.00
36788;BME280;22738;45.560;9.434;2023-01-31T06:34:04;100464.22;;;0.86;100.00
36788;BME280;22738;45.560;9.434;2023-01-31T06:40:45;100453.31;;;0.73;100.00
36788;BME280;22738;45.560;9.434;2023-01-31T06:47:26;100459.56;;;0.53;100.00
36788;BME280;22738;45.560;9.434;2023-01-31T06:54:07;100475.41;;;0.75;100.00
36788;BME280;22738;45.560;9.434;2023-01-31T07:00:48;100489.66;;;0.89;100.00
36788;BME280;22738;45.560;9.434;2023-01-31T07:07:29;100484.63;;;0.86;100.00
36788;BME280;22738;45.560;9.434;2023-01-31T07:14:10;100477.59;;;1.00;100.00
36788;BME280;22738;45.560;9.434;2023-01-31T07:20:51;100493.44;;;1.22;100.00
36788;BME280;22738;45.560;9.434;2023-01-31T07:27:32;100503.75;;;1.14;100.00
36788;BME280;22738;45.560;9.434;2023-01-31T07:34:13;100510.28;;;1.32;100.00
36788;BME280;22738;45.560;9.434;2023-01-31T07:40:57;100508.09;;;1.63;100.00
36788;BME280;22738;45.560;9.434;2023-01-31T07:47:39;100506.72;;;1.91;100.00
36788;BME280;22738;45.560;9.434;2023-01-31T07:54:20;100523.94;;;2.29;100.00
36788;BME280;22738;45.560;9.434;2023-01-31T08:01:02;100524.09;;;2.62;100.00
36788;BME280;22738;45.560;9.434;2023-01-31T08:08:02;100538.53;;;3.05;100.00
36788;BME280;22738;45.560;9.434;2023-01-31T08:14:53;100557.03;;;7.12;100.00
36788;BME280;22738;45.560;9.434;2023-01-31T08:21:34;100553.91;;;10.80;100.00
36788;BME280;22738;45.560;9.434;2023-01-31T08:28:15;100570.34;;;12.18;100.00
36788;BME280;22738;45.560;9.434;2023-01-31T08:34:56;100591.91;;;13.47;100.00
36788;BME280;22738;45.560;9.434;2023-01-31T08:41:38;100599.28;;;14.46;87.78
36788;BME280;22738;45.560;9.434;2023-01-31T08:48:21;100602.09;;;15.29;78.61
36788;BME280;22738;45.560;9.434;2023-01-31T08:55:03;100603.22;;;15.50;76.48
36788;BME280;22738;45.560;9.434;2023-01-31T09:01:46;100610.75;;;15.55;77.40
36788;BME280;22738;45.560;9.434;2023-01-31T09:08:28;100603.63;;;15.81;79.28
36788;BME280;22738;45.560;9.434;2023-01-31T09:15:10;100608.66;;;15.95;73.59
36788;BME280;22738;45.560;9.434;2023-01-31T09:21:51;100606.25;;;13.67;98.79
36788;BME280;22738;45.560;9.434;2023-01-31T09:28:33;100608.75;;;12.13;100.00
36788;BME280;22738;45.560;9.434;2023-01-31T09:35:14;100609.69;;;12.42;100.00
36788;BME280;22738;45.560;9.434;2023-01-31T09:42:01;100609.78;;;13.25;100.00
36788;BME280;22738;45.560;9.434;2023-01-31T09:48:50;100604.75;;;13.36;100.00
36788;BME280;22738;45.560;9.434;2023-01-31T09:55:56;100613.13;;;13.41;100.00
36788;BME280;22738;45.560;9.434;2023-01-31T10:03:01;100611.50;;;11.96;100.00
36788;BME280;22738;45.560;9.434;2023-01-31T10:16:38;100610.75;;;11.16;100.00
36788;BME280;22738;45.560;9.434;2023-01-31T10:23:28;100612.16;;;10.90;100.00
36788;BME280;22738;45.560;9.434;2023-01-31T10:30:19;100614.44;;;10.79;100.00
36788;BME280;22738;45.560;9.434;2023-01-31T10:37:08;100607.38;;;10.83;100.00
36788;BME280;22738;45.560;9.434;2023-01-31T10:44:00;100599.59;;;10.98;100.00
36788;BME280;22738;45.560;9.434;2023-01-31T10:57:24;100582.91;;;10.71;100.00
36788;BME280;22738;45.560;9.434;2023-01-31T11:04:23;100561.69;;;10.80;100.00
36788;BME280;22738;45.560;9.434;2023-01-31T11:11:17;100556.00;;;10.56;100.00
36788;BME280;22738;45.560;9.434;2023-01-31T11:17:59;100550.03;;;10.56;100.00
36788;BME280;22738;45.560;9.434;2023-01-31T11:24:46;100541.88;;;10.46;100.00
36788;BME280;22738;45.560;9.434;2023-01-31T11:31:38;100532.38;;;10.62;100.00
36788;BME280;22738;45.560;9.434;2023-01-31T11:38:22;100529.50;;;10.36;100.00
36788;BME280;22738;45.560;9.434;2023-01-31T11:45:16;100520.94;;;10.34;100.00
36788;BME280;22738;45.560;9.434;2023-01-31T11:52:02;100519.53;;;10.44;100.00
36788;BME280;22738;45.560;9.434;2023-01-31T11:58:56;100518.56;;;10.46;100.00
36788;BME280;22738;45.560;9.434;2023-01-31T12:05:44;100513.69;;;10.40;100.00
36788;BME280;22738;45.560;9.434;2023-01-31T12:12:30;100503.34;;;10.40;100.00
36788;BME280;22738;45.560;9.434;2023-01-31T12:26:42;100479.41;;;10.35;100.00
36788;BME280;22738;45.560;9.434;2023-01-31T12:33:43;100453.00;;;10.29;100.00
36788;BME280;22738;45.560;9.434;2023-01-31T12:40:42;100450.09;;;10.18;100.00
36788;BME280;22738;45.560;9.434;2023-01-31T12:54:33;100443.69;;;10.25;100.00
36788;BME280;22738;45.560;9.434;2023-01-31T13:01:35;100429.75;;;10.43;100.00
36788;BME280;22738;45.560;9.434;2023-01-31T13:08:24;100427.16;;;10.43;100.00
36788;BME280;22738;45.560;9.434;2023-01-31T13:15:16;100425.75;;;10.53;100.00
36788;BME280;22738;45.560;9.434;2023-01-31T13:22:07;100401.94;;;10.62;100.00
36788;BME280;22738;45.560;9.434;2023-01-31T13:36:10;100389.81;;;10.62;100.00
36788;BME280;22738;45.560;9.434;2023-01-31T13:42:59;100385.63;;;10.60;100.00
36788;BME280;22738;45.560;9.434;2023-01-31T13:49:49;100385.03;;;10.55;100.00
36788;BME280;22738;45.560;9.434;2023-01-31T13:56:33;100381.59;;;10.70;100.00
36788;BME280;22738;45.560;9.434;2023-01-31T14:03:18;100372.75;;;10.74;100.00
36788;BME280;22738;45.560;9.434;2023-01-31T14:16:42;100367.38;;;10.77;100.00
36788;BME280;22738;45.560;9.434;2023-01-31T14:23:31;100358.09;;;10.73;100.00
36788;BME280;22738;45.560;9.434;2023-01-31T14:30:36;100362.13;;;10.63;100.00
36788;BME280;22738;45.560;9.434;2023-01-31T14:44:48;100354.34;;;10.63;100.00
36788;BME280;22738;45.560;9.434;2023-01-31T14:58:35;100346.16;;;10.39;100.00
36788;BME280;22738;45.560;9.434;2023-01-31T15:05:24;100336.22;;;10.32;100.00
36788;BME280;22738;45.560;9.434;2023-01-31T15:12:55;100344.16;;;10.29;100.00
36788;BME280;22738;45.560;9.434;2023-01-31T15:19:50;100340.97;;;10.24;100.00
36788;BME280;22738;45.560;9.434;2023-01-31T15:26:33;100350.00;;;10.17;100.00
36788;BME280;22738;45.560;9.434;2023-01-31T15:33:28;100326.22;;;10.08;100.00
36788;BME280;22738;45.560;9.434;2023-01-31T15:40:20;100335.75;;;9.92;100.00
36788;BME280;22738;45.560;9.434;2023-01-31T15:47:19;100333.09;;;9.77;100.00
36788;BME280;22738;45.560;9.434;2023-01-31T15:54:05;100349.91;;;9.53;100.00
36788;BME280;22738;45.560;9.434;2023-01-31T16:00:51;100351.47;;;9.40;100.00
36788;BME280;22738;45.560;9.434;2023-01-31T16:07:33;100363.25;;;9.28;100.00
36788;BME280;22738;45.560;9.434;2023-01-31T16:14:15;100355.94;;;9.02;100.00
36788;BME280;22738;45.560;9.434;2023-01-31T16:20:56;100355.31;;;8.80;100.00
36788;BME280;22738;45.560;9.434;2023-01-31T16:27:41;100354.81;;;8.54;100.00
36788;BME280;22738;45.560;9.434;2023-01-31T16:34:31;100350.66;;;8.33;100.00
36788;BME280;22738;45.560;9.434;2023-01-31T16:41:36;100372.53;;;8.06;100.00
36788;BME280;22738;45.560;9.434;2023-01-31T16:48:23;100379.94;;;7.75;100.00
36788;BME280;22738;45.560;9.434;2023-01-31T16:55:15;100374.53;;;7.41;100.00
36788;BME280;22738;45.560;9.434;2023-01-31T17:08:57;100390.59;;;6.85;100.00
36788;BME280;22738;45.560;9.434;2023-01-31T17:15:39;100408.84;;;6.58;100.00
36788;BME280;22738;45.560;9.434;2023-01-31T17:22:23;100385.25;;;6.46;100.00
36788;BME280;22738;45.560;9.434;2023-01-31T17:29:04;100390.00;;;6.34;100.00
36788;BME280;22738;45.560;9.434;2023-01-31T17:35:45;100392.81;;;6.05;100.00
36788;BME280;22738;45.560;9.434;2023-01-31T17:42:26;100422.13;;;5.51;100.00
36788;BME280;22738;45.560;9.434;2023-01-31T17:49:07;100416.63;;;5.37;100.00
36788;BME280;22738;45.560;9.434;2023-01-31T17:55:49;100388.56;;;5.31;100.00
36788;BME280;22738;45.560;9.434;2023-01-31T18:02:30;100389.34;;;5.33;100.00
36788;BME280;22738;45.560;9.434;2023-01-31T18:09:13;100384.00;;;5.39;100.00
36788;BME280;22738;45.560;9.434;2023-01-31T18:16:05;100373.44;;;5.22;100.00
36788;BME280;22738;45.560;9.434;2023-01-31T18:22:46;100361.78;;;5.12;100.00
36788;BME280;22738;45.560;9.434;2023-01-31T18:29:27;100366.63;;;5.21;100.00
36788;BME280;22738;45.560;9.434;2023-01-31T18:36:11;100362.63;;;4.60;100.00
36788;BME280;22738;45.560;9.434;2023-01-31T18:42:55;100367.19;;;4.51;100.00
36788;BME280;22738;45.560;9.434;2023-01-31T18:49:37;100383.19;;;4.31;100.00
36788;BME280;22738;45.560;9.434;2023-01-31T18:56:19;100375.69;;;4.53;100.00
36788;BME280;22738;45.560;9.434;2023-01-31T19:03:01;100359.50;;;4.51;100.00
36788;BME280;22738;45.560;9.434;2023-01-31T19:09:42;100357.19;;;4.42;100.00
36788;BME280;22738;45.560;9.434;2023-01-31T19:16:25;100358.97;;;4.40;100.00
36788;BME280;22738;45.560;9.434;2023-01-31T19:23:06;100360.41;;;4.20;100.00
36788;BME280;22738;45.560;9.434;2023-01-31T19:29:47;100364.28;;;3.75;100.00
36788;BME280;22738;45.560;9.434;2023-01-31T19:36:31;100377.47;;;3.92;100.00
36788;BME280;22738;45.560;9.434;2023-01-31T19:43:12;100406.75;;;4.14;100.00
36788;BME280;22738;45.560;9.434;2023-01-31T19:49:53;100399.31;;;4.36;100.00
36788;BME280;22738;45.560;9.434;2023-01-31T19:56:34;100380.06;;;4.49;100.00
36788;BME280;22738;45.560;9.434;2023-01-31T20:03:15;100389.69;;;4.43;100.00
36788;BME280;22738;45.560;9.434;2023-01-31T20:09:56;100392.16;;;4.16;100.00
36788;BME280;22738;45.560;9.434;2023-01-31T20:16:38;100379.06;;;3.96;100.00
36788;BME280;22738;45.560;9.434;2023-01-31T20:23:20;100371.78;;;3.52;100.00
36788;BME280;22738;45.560;9.434;2023-01-31T20:30:01;100393.09;;;3.19;100.00
36788;BME280;22738;45.560;9.434;2023-01-31T20:36:42;100391.28;;;3.24;100.00
36788;BME280;22738;45.560;9.434;2023-01-31T20:43:24;100372.56;;;3.22;100.00
36788;BME280;22738;45.560;9.434;2023-01-31T20:50:06;100383.09;;;3.10;100.00
36788;BME280;22738;45.560;9.434;2023-01-31T20:56:47;100377.91;;;3.13;100.00
36788;BME280;22738;45.560;9.434;2023-01-31T21:03:29;100382.22;;;2.75;100.00
36788;BME280;22738;45.560;9.434;2023-01-31T21:10:11;100365.56;;;2.93;100.00
36788;BME280;22738;45.560;9.434;2023-01-31T21:16:52;100364.66;;;2.96;100.00
36788;BME280;22738;45.560;9.434;2023-01-31T21:23:34;100362.81;;;3.36;100.00
36788;BME280;22738;45.560;9.434;2023-01-31T21:30:16;100354.50;;;2.93;100.00
36788;BME280;22738;45.560;9.434;2023-01-31T21:36:57;100382.81;;;2.86;100.00
36788;BME280;22738;45.560;9.434;2023-01-31T21:43:38;100366.56;;;2.87;100.00
36788;BME280;22738;45.560;9.434;2023-01-31T21:50:22;100373.28;;;2.92;100.00
36788;BME280;22738;45.560;9.434;2023-01-31T21:57:03;100373.53;;;3.16;100.00
36788;BME280;22738;45.560;9.434;2023-01-31T22:03:47;100377.81;;;3.48;100.00
36788;BME280;22738;45.560;9.434;2023-01-31T22:10:28;100373.97;;;3.64;100.00
36788;BME280;22738;45.560;9.434;2023-01-31T22:17:09;100370.91;;;3.51;100.00
36788;BME280;22738;45.560;9.434;2023-01-31T22:23:52;100371.28;;;3.38;100.00
36788;BME280;22738;45.560;9.434;2023-01-31T22:30:33;100356.16;;;3.27;100.00
36788;BME280;22738;45.560;9.434;2023-01-31T22:37:14;100357.25;;;3.19;100.00
36788;BME280;22738;45.560;9.434;2023-01-31T22:43:56;100354.91;;;3.11;100.00
36788;BME280;22738;45.560;9.434;2023-01-31T22:50:37;100343.69;;;2.81;100.00
36788;BME280;22738;45.560;9.434;2023-01-31T22:57:18;100343.25;;;2.98;100.00
36788;BME280;22738;45.560;9.434;2023-01-31T23:04:02;100340.06;;;3.24;100.00
36788;BME280;22738;45.560;9.434;2023-01-31T23:10:44;100329.06;;;3.51;100.00
36788;BME280;22738;45.560;9.434;2023-01-31T23:17:25;100336.16;;;3.43;100.00
36788;BME280;22738;45.560;9.434;2023-01-31T23:24:18;100320.22;;;3.00;100.00
36788;BME280;22738;45.560;9.434;2023-01-31T23:31:00;100319.66;;;2.87;100.00
36788;BME280;22738;45.560;9.434;2023-01-31T23:37:41;100312.16;;;2.79;100.00
36788;BME280;22738;45.560;9.434;2023-01-31T23:44:23;100317.06;;;2.16;100.00
36788;BME280;22738;45.560;9.434;2023-01-31T23:51:06;100326.03;;;2.34;100.00
36788;BME280;22738;45.560;9.434;2023-01-31T23:57:47;100315.63;;;2.78;100.00
